Time;durP1;ratioP1;P1;durP2;ratioP2;P2;SDS_P1;SDS_P2;PMS_P1;PMS_P2;Temp;Humidity;BMP_temperature;BMP_pressure;BME280_temperature;BME280_humidity;BME280_pressure;Samples;Min_cycle;Max_cycle;Signal;HPM_P1;HPM_P2
2022/07/05 00:01:28;;;;;;;;;;;21.40;85.60;;;;;;6222353;23;19969;-83
2022/07/05 00:03:54;;;;;;;;;;;21.40;85.30;;;;;;6222655;23;19970;-83
2022/07/05 00:06:21;;;;;;;;;;;21.30;84.90;;;;;;6222651;23;19947;-84
2022/07/05 00:08:48;;;;;;;;;;;21.30;85.00;;;;;;6222318;23;19920;-84
2022/07/05 00:11:15;;;;;;;;;;;21.30;84.70;;;;;;6222000;23;19924;-84
2022/07/05 00:13:42;;;;;;;;;;;21.30;84.80;;;;;;6222602;23;20351;-84
2022/07/05 00:16:08;;;;;;;;;;;21.30;85.00;;;;;;6222157;23;20332;-84
2022/07/05 00:18:35;;;;;;;;;;;21.20;85.00;;;;;;6222343;23;19931;-84
2022/07/05 00:21:02;;;;;;;;;;;21.20;84.50;;;;;;6220135;23;19965;-84
2022/07/05 00:23:29;;;;;;;;;;;21.20;83.60;;;;;;6222599;23;19989;-84
2022/07/05 00:25:55;;;;;;;;;;;21.30;80.60;;;;;;6222127;23;20229;-84
2022/07/05 00:28:22;;;;;;;;;;;21.30;79.30;;;;;;6222376;23;19919;-83
2022/07/05 00:30:49;;;;;;;;;;;21.40;79.00;;;;;;6221985;23;19973;-83
2022/07/05 00:33:16;;;;;;;;;;;21.40;78.70;;;;;;6222632;23;19986;-84
2022/07/05 00:35:43;;;;;;;;;;;21.40;78.20;;;;;;6222082;23;19950;-84
2022/07/05 00:38:09;;;;;;;;;;;21.40;78.20;;;;;;6222637;23;19923;-85
2022/07/05 00:40:36;;;;;;;;;;;21.40;77.80;;;;;;6222805;23;19920;-85
2022/07/05 00:43:03;;;;;;;;;;;21.40;78.50;;;;;;6222170;23;19966;-85
2022/07/05 00:45:30;;;;;;;;;;;21.40;78.60;;;;;;6222011;23;19927;-84
2022/07/05 00:47:57;;;;;;;;;;;21.40;79.00;;;;;;6221777;23;19970;-85
2022/07/05 00:50:24;;;;;;;;;;;21.30;79.20;;;;;;6222216;23;19923;-85
2022/07/05 00:52:53;;;;;;;;;;;21.30;79.50;;;;;;6222251;23;20293;-85
2022/07/05 00:55:19;;;;;;;;;;;21.20;79.80;;;;;;6221751;23;19920;-85
2022/07/05 00:57:46;;;;;;;;;;;21.20;79.50;;;;;;6221707;23;19926;-84
2022/07/05 01:00:13;;;;;;;;;;;21.10;80.50;;;;;;6221791;23;19973;-85
2022/07/05 01:02:40;;;;;;;;;;;21.10;80.10;;;;;;6222575;23;19920;-85
2022/07/05 01:05:07;;;;;;;;;;;21.00;79.90;;;;;;6221758;23;20244;-84
2022/07/05 01:07:34;;;;;;;;;;;21.00;80.00;;;;;;6221720;23;19920;-86
2022/07/05 01:10:01;;;;;;;;;;;21.00;79.30;;;;;;6221488;23;19920;-85
2022/07/05 01:12:28;;;;;;;;;;;21.00;78.60;;;;;;6221828;23;19920;-84
2022/07/05 01:14:55;;;;;;;;;;;21.00;76.10;;;;;;6221741;23;20315;-84
2022/07/05 01:17:22;;;;;;;;;;;21.00;75.30;;;;;;6221975;23;20299;-84
2022/07/05 01:19:49;;;;;;;;;;;21.10;75.60;;;;;;6221812;23;20256;-84
2022/07/05 01:22:18;;;;;;;;;;;21.10;73.50;;;;;;6220506;23;20245;-84
2022/07/05 01:24:45;;;;;;;;;;;21.10;73.30;;;;;;6221939;23;20399;-84
2022/07/05 01:27:13;;;;;;;;;;;21.10;72.50;;;;;;6222008;23;19924;-84
2022/07/05 01:29:40;;;;;;;;;;;21.20;72.10;;;;;;6221994;23;19923;-83
2022/07/05 01:32:07;;;;;;;;;;;21.20;71.50;;;;;;6221003;23;19919;-84
2022/07/05 01:34:36;;;;;;;;;;;21.20;70.00;;;;;;6221397;23;19950;-84
2022/07/05 01:37:04;;;;;;;;;;;21.20;70.50;;;;;;6221406;23;19920;-84
2022/07/05 01:39:30;;;;;;;;;;;21.30;69.60;;;;;;6221549;23;19920;-84
2022/07/05 01:41:57;;;;;;;;;;;21.30;70.30;;;;;;6221243;23;19920;-84
2022/07/05 01:44:24;;;;;;;;;;;21.30;70.10;;;;;;6221552;23;19923;-84
2022/07/05 01:46:51;;;;;;;;;;;21.30;69.70;;;;;;6221272;23;19930;-83
2022/07/05 01:49:19;;;;;;;;;;;21.30;70.30;;;;;;6221841;23;20345;-83
2022/07/05 01:51:52;;;;;;;;;;;21.20;69.50;;;;;;6221412;23;19927;-84
2022/07/05 01:54:19;;;;;;;;;;;21.30;67.70;;;;;;6221305;23;19920;-83
2022/07/05 01:56:46;;;;;;;;;;;21.30;68.40;;;;;;6221121;23;19926;-83
2022/07/05 01:59:13;;;;;;;;;;;21.40;68.70;;;;;;6220965;23;19924;-82
2022/07/05 02:01:40;;;;;;;;;;;21.40;65.60;;;;;;6220918;23;20303;-83
2022/07/05 02:04:08;;;;;;;;;;;21.60;64.20;;;;;;6221126;23;20260;-83
2022/07/05 02:06:35;;;;;;;;;;;21.70;64.20;;;;;;6247497;23;19930;-82
2022/07/05 02:09:03;;;;;;;;;;;21.70;64.60;;;;;;6220810;23;19954;-83
2022/07/05 02:11:30;;;;;;;;;;;21.70;64.60;;;;;;6221223;23;19924;-83
2022/07/05 02:13:57;;;;;;;;;;;21.70;63.70;;;;;;6221854;23;19924;-83
2022/07/05 02:16:25;;;;;;;;;;;21.90;62.20;;;;;;6220894;23;19923;-84
2022/07/05 02:18:52;;;;;;;;;;;21.90;61.40;;;;;;6248148;23;19919;-84
2022/07/05 02:21:19;;;;;;;;;;;22.00;61.40;;;;;;6221662;23;19923;-83
2022/07/05 02:23:46;;;;;;;;;;;22.00;60.90;;;;;;6220376;23;19958;-83
2022/07/05 02:26:12;;;;;;;;;;;22.00;61.10;;;;;;6247386;23;19919;-85
2022/07/05 02:28:39;;;;;;;;;;;22.00;61.30;;;;;;6221610;23;19919;-83
2022/07/05 02:31:06;;;;;;;;;;;22.00;62.00;;;;;;6220963;23;20402;-84
2022/07/05 02:33:33;;;;;;;;;;;21.90;61.40;;;;;;6220852;23;19923;-85
2022/07/05 02:36:10;;;;;;;;;;;21.90;61.30;;;;;;6221009;23;19924;-85
2022/07/05 02:38:37;;;;;;;;;;;21.90;62.00;;;;;;6221027;23;19923;-79
2022/07/05 02:41:04;;;;;;;;;;;21.90;61.80;;;;;;6220548;23;19923;-79
2022/07/05 02:43:31;;;;;;;;;;;21.90;61.50;;;;;;6221064;23;19938;-79
2022/07/05 02:45:58;;;;;;;;;;;21.90;61.00;;;;;;6220489;23;19919;-79
2022/07/05 02:48:24;;;;;;;;;;;21.90;60.60;;;;;;6220415;23;19974;-80
2022/07/05 02:50:51;;;;;;;;;;;22.00;61.60;;;;;;6220920;23;19926;-80
2022/07/05 02:53:18;;;;;;;;;;;22.00;62.20;;;;;;6220329;23;19923;-80
2022/07/05 02:55:45;;;;;;;;;;;22.00;59.60;;;;;;6221018;23;19923;-79
2022/07/05 02:58:11;;;;;;;;;;;22.10;59.60;;;;;;6220954;23;19920;-79
2022/07/05 03:00:38;;;;;;;;;;;22.20;60.40;;;;;;6220911;23;20339;-79
2022/07/05 03:03:05;;;;;;;;;;;22.20;60.00;;;;;;6220140;23;19934;-79
2022/07/05 03:05:32;;;;;;;;;;;22.20;59.20;;;;;;6220878;23;20307;-79
2022/07/05 03:07:58;;;;;;;;;;;22.20;57.80;;;;;;6220365;23;20356;-79
2022/07/05 03:10:25;;;;;;;;;;;22.30;58.20;;;;;;6220273;23;19977;-79
2022/07/05 03:12:52;;;;;;;;;;;22.30;58.60;;;;;;6220383;23;19920;-79
2022/07/05 03:15:19;;;;;;;;;;;22.30;58.40;;;;;;6220139;23;19954;-79
2022/07/05 03:17:45;;;;;;;;;;;22.20;58.10;;;;;;6220385;23;19925;-79
2022/07/05 03:20:12;;;;;;;;;;;22.20;57.50;;;;;;6220385;23;19920;-80
2022/07/05 03:22:39;;;;;;;;;;;22.20;58.10;;;;;;6220771;23;19966;-80
2022/07/05 03:25:06;;;;;;;;;;;22.20;58.40;;;;;;6246811;23;19920;-80
2022/07/05 03:27:33;;;;;;;;;;;22.10;58.40;;;;;;6220285;23;19919;-79
2022/07/05 03:29:59;;;;;;;;;;;22.10;58.90;;;;;;6220370;23;19924;-80
2022/07/05 03:32:26;;;;;;;;;;;22.00;59.40;;;;;;6220446;23;19919;-79
2022/07/05 03:34:53;;;;;;;;;;;22.00;58.70;;;;;;6220430;23;20255;-80
2022/07/05 03:37:20;;;;;;;;;;;22.00;58.70;;;;;;6220361;23;19920;-79
2022/07/05 03:39:46;;;;;;;;;;;22.00;58.70;;;;;;6220225;23;19969;-79
2022/07/05 03:42:13;;;;;;;;;;;22.00;59.10;;;;;;6246565;23;19926;-79
2022/07/05 03:44:40;;;;;;;;;;;21.90;59.30;;;;;;6246827;23;19919;-81
2022/07/05 03:47:07;;;;;;;;;;;21.90;58.70;;;;;;6220399;23;19919;-80
2022/07/05 03:49:33;;;;;;;;;;;21.90;58.70;;;;;;6220239;23;20345;-79
2022/07/05 03:52:00;;;;;;;;;;;21.90;58.90;;;;;;6220167;23;19923;-79
2022/07/05 03:54:27;;;;;;;;;;;21.90;59.30;;;;;;6220251;23;19958;-79
2022/07/05 03:56:53;;;;;;;;;;;21.90;59.30;;;;;;6220499;23;19920;-79
2022/07/05 03:59:20;;;;;;;;;;;21.80;59.50;;;;;;6220335;23;19982;-79
2022/07/05 04:01:47;;;;;;;;;;;21.70;60.30;;;;;;6220370;23;19920;-79
2022/07/05 04:04:14;;;;;;;;;;;21.70;59.80;;;;;;6221059;23;19920;-79
2022/07/05 04:06:41;;;;;;;;;;;21.70;59.60;;;;;;6248233;23;19920;-80
2022/07/05 04:09:07;;;;;;;;;;;21.70;59.80;;;;;;6216725;23;19919;-79
2022/07/05 04:11:34;;;;;;;;;;;21.70;60.00;;;;;;6218275;23;20234;-79
2022/07/05 04:14:01;;;;;;;;;;;21.60;60.00;;;;;;6216447;23;20300;-79
2022/07/05 04:16:27;;;;;;;;;;;21.70;59.50;;;;;;6217324;23;19920;-78
2022/07/05 04:18:54;;;;;;;;;;;21.70;58.90;;;;;;6216442;23;20010;-79
2022/07/05 04:21:21;;;;;;;;;;;21.70;59.20;;;;;;6216997;23;20333;-79
2022/07/05 04:23:48;;;;;;;;;;;21.80;59.20;;;;;;6216918;23;19920;-79
2022/07/05 04:26:14;;;;;;;;;;;21.80;58.60;;;;;;6216623;23;19920;-79
2022/07/05 04:28:41;;;;;;;;;;;21.90;58.80;;;;;;6216340;23;19920;-80
2022/07/05 04:31:08;;;;;;;;;;;21.90;58.20;;;;;;6217690;23;19927;-80
2022/07/05 04:33:35;;;;;;;;;;;21.90;58.40;;;;;;6216708;23;19955;-80
2022/07/05 04:36:01;;;;;;;;;;;21.90;58.10;;;;;;6216489;23;19920;-79
2022/07/05 04:38:29;;;;;;;;;;;21.90;58.40;;;;;;6216937;23;19919;-79
2022/07/05 04:40:55;;;;;;;;;;;21.90;58.30;;;;;;6216572;23;19944;-79
2022/07/05 04:43:22;;;;;;;;;;;21.90;58.00;;;;;;6216561;23;19920;-79
2022/07/05 04:45:49;;;;;;;;;;;22.00;58.00;;;;;;6216272;23;20299;-80
2022/07/05 04:48:22;;;;;;;;;;;22.00;58.00;;;;;;6216454;23;19924;-80
2022/07/05 04:50:49;;;;;;;;;;;22.00;58.30;;;;;;6216380;23;19923;-79
2022/07/05 04:53:15;;;;;;;;;;;22.00;58.40;;;;;;6216208;23;19920;-80
2022/07/05 04:55:42;;;;;;;;;;;22.00;57.40;;;;;;6216521;23;19943;-79
2022/07/05 04:58:09;;;;;;;;;;;22.10;56.90;;;;;;6217836;23;19978;-79
2022/07/05 05:00:36;;;;;;;;;;;22.20;57.10;;;;;;6215532;23;20297;-79
2022/07/05 05:03:03;;;;;;;;;;;22.20;57.80;;;;;;6216297;23;19939;-79
2022/07/05 05:05:30;;;;;;;;;;;22.30;56.80;;;;;;6216956;23;19919;-79
2022/07/05 05:07:57;;;;;;;;;;;22.30;56.90;;;;;;6227542;23;19919;-79
2022/07/05 05:10:24;;;;;;;;;;;22.30;57.20;;;;;;6221421;23;20344;-79
2022/07/05 05:12:51;;;;;;;;;;;22.30;57.20;;;;;;6221199;23;19927;-79
2022/07/05 05:15:17;;;;;;;;;;;22.30;57.60;;;;;;6220713;23;19973;-79
2022/07/05 05:17:44;;;;;;;;;;;22.30;57.90;;;;;;6221707;23;19966;-79
2022/07/05 05:20:12;;;;;;;;;;;22.30;57.20;;;;;;6221304;23;20382;-80
2022/07/05 05:22:39;;;;;;;;;;;22.20;57.60;;;;;;6221655;23;19942;-80
2022/07/05 05:25:06;;;;;;;;;;;22.20;57.60;;;;;;6221111;23;20367;-80
2022/07/05 05:27:33;;;;;;;;;;;22.30;58.20;;;;;;6221246;23;19919;-78
2022/07/05 05:29:59;;;;;;;;;;;22.30;58.10;;;;;;6220625;23;20600;-78
2022/07/05 05:32:26;;;;;;;;;;;22.30;58.60;;;;;;6246723;23;20320;-78
2022/07/05 05:34:53;;;;;;;;;;;22.30;58.90;;;;;;6220925;23;20264;-79
2022/07/05 05:37:20;;;;;;;;;;;22.30;60.00;;;;;;6220307;23;19970;-78
2022/07/05 05:39:46;;;;;;;;;;;22.20;60.10;;;;;;6220352;23;19924;-79
2022/07/05 05:42:14;;;;;;;;;;;22.20;60.00;;;;;;6220691;23;19973;-78
2022/07/05 05:44:41;;;;;;;;;;;22.20;59.90;;;;;;6220724;23;19920;-79
2022/07/05 05:47:07;;;;;;;;;;;22.20;60.00;;;;;;6220454;23;19923;-79
2022/07/05 05:49:42;;;;;;;;;;;22.20;60.60;;;;;;6222258;23;19955;-78
2022/07/05 05:52:09;;;;;;;;;;;22.30;59.70;;;;;;6220788;23;20003;-79
2022/07/05 05:54:36;;;;;;;;;;;22.30;60.00;;;;;;6220791;23;20336;-78
2022/07/05 05:57:03;;;;;;;;;;;22.40;59.60;;;;;;6220645;23;20249;-79
2022/07/05 05:59:29;;;;;;;;;;;22.40;58.50;;;;;;6220911;23;20336;-78
2022/07/05 06:01:56;;;;;;;;;;;22.40;58.60;;;;;;6220422;23;19974;-80
2022/07/05 06:04:23;;;;;;;;;;;22.50;58.00;;;;;;6220839;23;19969;-79
2022/07/05 06:06:50;;;;;;;;;;;22.50;57.80;;;;;;6220809;23;20002;-79
2022/07/05 06:09:16;;;;;;;;;;;22.50;58.10;;;;;;6220793;23;19950;-78
2022/07/05 06:11:43;;;;;;;;;;;22.60;57.60;;;;;;6220535;23;19985;-79
2022/07/05 06:14:11;;;;;;;;;;;22.70;56.40;;;;;;6220669;23;19982;-79
2022/07/05 06:16:38;;;;;;;;;;;22.80;57.00;;;;;;6220635;23;19950;-79
2022/07/05 06:19:05;;;;;;;;;;;22.90;56.90;;;;;;6220355;23;20045;-78
2022/07/05 06:21:31;;;;;;;;;;;22.90;56.50;;;;;;6247013;23;19924;-78
2022/07/05 06:23:58;;;;;;;;;;;23.00;56.30;;;;;;6220154;23;19970;-78
2022/07/05 06:26:25;;;;;;;;;;;23.00;55.90;;;;;;6220589;23;20217;-79
2022/07/05 06:28:52;;;;;;;;;;;23.10;56.60;;;;;;6220540;23;20344;-78
2022/07/05 06:31:18;;;;;;;;;;;23.10;56.50;;;;;;6220059;23;19923;-79
2022/07/05 06:33:45;;;;;;;;;;;23.20;56.90;;;;;;6220177;23;19926;-79
2022/07/05 06:36:12;;;;;;;;;;;23.20;56.70;;;;;;6220705;23;20335;-79
2022/07/05 06:38:39;;;;;;;;;;;23.30;56.60;;;;;;6220307;23;19920;-78
2022/07/05 06:41:06;;;;;;;;;;;23.30;57.40;;;;;;6220079;23;19923;-80
2022/07/05 06:43:32;;;;;;;;;;;23.40;57.30;;;;;;6220531;23;20233;-78
2022/07/05 06:45:59;;;;;;;;;;;23.40;55.90;;;;;;6220326;23;20229;-79
2022/07/05 06:48:26;;;;;;;;;;;23.50;55.70;;;;;;6220130;23;20406;-78
2022/07/05 06:50:53;;;;;;;;;;;23.60;55.80;;;;;;6220279;23;19923;-79
2022/07/05 06:53:20;;;;;;;;;;;23.70;55.70;;;;;;6220154;23;19919;-78
2022/07/05 06:55:46;;;;;;;;;;;23.80;55.60;;;;;;6220158;23;19993;-78
2022/07/05 06:58:21;;;;;;;;;;;23.90;55.40;;;;;;6246523;23;19955;-78
2022/07/05 07:00:48;;;;;;;;;;;24.00;55.40;;;;;;6220077;23;19962;-79
2022/07/05 07:03:35;;;;;;;;;;;24.10;55.30;;;;;;6224222;23;19920;-78
2022/07/05 07:06:22;;;;;;;;;;;24.20;54.60;;;;;;6224286;23;19919;-78
2022/07/05 07:11:33;;;;;;;;;;;24.40;54.00;;;;;;6246703;23;19908;-79
2022/07/05 07:14:00;;;;;;;;;;;24.50;54.10;;;;;;6219826;23;19946;-78
2022/07/05 07:16:27;;;;;;;;;;;24.60;53.30;;;;;;6219846;23;19946;-79
2022/07/05 07:18:54;;;;;;;;;;;24.70;52.80;;;;;;6220020;23;19927;-79
2022/07/05 07:21:40;;;;;;;;;;;24.80;53.20;;;;;;6224000;23;20352;-79
2022/07/05 07:24:07;;;;;;;;;;;24.90;52.30;;;;;;6220214;23;19923;-79
2022/07/05 07:27:02;;;;;;;;;;;25.10;51.80;;;;;;6220185;23;20374;-79
2022/07/05 07:29:20;;;;;;;;;;;25.20;51.40;;;;;;6246653;23;20340;-79
2022/07/05 07:31:47;;;;;;;;;;;25.30;51.80;;;;;;6219748;23;19927;-78
2022/07/05 07:34:14;;;;;;;;;;;25.50;50.90;;;;;;6219982;23;19974;-79
2022/07/05 07:36:42;;;;;;;;;;;25.60;52.20;;;;;;6220257;23;20320;-80
2022/07/05 07:39:08;;;;;;;;;;;25.70;55.70;;;;;;6221229;23;19919;-78
2022/07/05 07:41:35;;;;;;;;;;;25.80;57.40;;;;;;6247645;23;19919;-79
2022/07/05 07:44:02;;;;;;;;;;;25.80;57.00;;;;;;6221534;23;19923;-78
2022/07/05 07:46:29;;;;;;;;;;;25.90;56.50;;;;;;6221356;23;20399;-79
2022/07/05 07:48:56;;;;;;;;;;;25.90;56.60;;;;;;6221345;23;19920;-78
2022/07/05 07:51:23;;;;;;;;;;;25.90;56.30;;;;;;6221022;23;19920;-79
2022/07/05 07:53:50;;;;;;;;;;;25.90;56.70;;;;;;6221241;23;19920;-79
2022/07/05 07:56:17;;;;;;;;;;;26.10;56.90;;;;;;6220812;23;19930;-79
2022/07/05 07:58:44;;;;;;;;;;;26.20;56.70;;;;;;6247677;23;19981;-78
2022/07/05 08:01:11;;;;;;;;;;;26.30;56.20;;;;;;6220931;23;19970;-78
2022/07/05 08:03:38;;;;;;;;;;;26.40;55.80;;;;;;6221598;23;19968;-79
2022/07/05 08:06:07;;;;;;;;;;;26.60;56.10;;;;;;6247434;23;19931;-80
2022/07/05 08:08:35;;;;;;;;;;;26.70;55.60;;;;;;6220958;23;20301;-80
2022/07/05 08:11:01;;;;;;;;;;;26.90;54.60;;;;;;6220689;23;19923;-79
2022/07/05 08:13:28;;;;;;;;;;;26.90;54.40;;;;;;6221231;23;19965;-79
2022/07/05 08:15:55;;;;;;;;;;;27.00;54.40;;;;;;6220893;23;19973;-80
2022/07/05 08:23:53;;;;;;;;;;;27.20;55.00;;;;;;6247597;23;20237;-79
2022/07/05 08:26:20;;;;;;;;;;;27.30;52.10;;;;;;6220793;23;19920;-79
2022/07/05 08:28:48;;;;;;;;;;;27.40;53.00;;;;;;6220489;23;19923;-80
2022/07/05 08:31:35;;;;;;;;;;;27.50;52.90;;;;;;6247311;23;20363;-80
2022/07/05 08:34:02;;;;;;;;;;;27.50;53.40;;;;;;6221078;23;20436;-79
2022/07/05 08:36:28;;;;;;;;;;;27.60;53.90;;;;;;6247131;23;20410;-79
2022/07/05 08:38:55;;;;;;;;;;;27.80;53.60;;;;;;6220758;23;19926;-79
2022/07/05 08:41:23;;;;;;;;;;;27.90;51.90;;;;;;6247230;23;20234;-80
2022/07/05 08:43:51;;;;;;;;;;;28.00;51.90;;;;;;6220765;23;19920;-80
2022/07/05 08:46:18;;;;;;;;;;;28.10;51.90;;;;;;6220472;23;20391;-80
2022/07/05 08:48:49;;;;;;;;;;;28.20;51.10;;;;;;6221109;23;19945;-80
2022/07/05 08:51:17;;;;;;;;;;;28.10;50.50;;;;;;6220669;23;20390;-80
2022/07/05 08:53:45;;;;;;;;;;;28.10;50.00;;;;;;6220516;23;19920;-80
2022/07/05 08:56:13;;;;;;;;;;;28.20;50.10;;;;;;6221055;23;19927;-80
2022/07/05 08:58:51;;;;;;;;;;;28.40;48.30;;;;;;6222585;23;19966;-79
2022/07/05 09:01:18;;;;;;;;;;;28.60;49.50;;;;;;6247315;23;19974;-79
2022/07/05 09:03:50;;;;;;;;;;;28.80;49.00;;;;;;6220840;23;19962;-79
2022/07/05 09:06:18;;;;;;;;;;;28.80;50.40;;;;;;6220637;23;19950;-80
2022/07/05 09:08:45;;;;;;;;;;;28.80;50.70;;;;;;6246785;23;19973;-79
2022/07/05 09:11:15;;;;;;;;;;;28.80;50.00;;;;;;6220331;23;20180;-80
2022/07/05 09:13:43;;;;;;;;;;;28.90;49.70;;;;;;6246654;23;20424;-79
2022/07/05 09:16:30;;;;;;;;;;;29.00;49.80;;;;;;6224464;23;19995;-79
2022/07/05 09:19:04;;;;;;;;;;;29.10;49.90;;;;;;6220283;23;19924;-79
2022/07/05 09:21:31;;;;;;;;;;;29.20;48.90;;;;;;6220139;23;19926;-80
2022/07/05 09:24:03;;;;;;;;;;;29.30;47.90;;;;;;6220503;23;19927;-80
2022/07/05 09:26:49;;;;;;;;;;;29.50;48.60;;;;;;6220248;23;19919;-80
2022/07/05 09:29:17;;;;;;;;;;;29.80;47.40;;;;;;6220357;23;20003;-79
2022/07/05 09:32:04;;;;;;;;;;;30.00;45.90;;;;;;6246299;23;19999;-80
2022/07/05 09:34:30;;;;;;;;;;;30.20;46.00;;;;;;6246433;23;19919;-79
2022/07/05 09:37:01;;;;;;;;;;;30.20;45.00;;;;;;6246262;23;19923;-80
2022/07/05 09:39:31;;;;;;;;;;;30.20;44.80;;;;;;6220245;23;19994;-80
2022/07/05 09:42:11;;;;;;;;;;;30.30;45.10;;;;;;6219903;23;19974;-80
2022/07/05 09:44:48;;;;;;;;;;;30.50;44.60;;;;;;6220167;23;19923;-80
2022/07/05 09:47:16;;;;;;;;;;;30.40;45.00;;;;;;6220399;23;19985;-79
2022/07/05 09:49:44;;;;;;;;;;;30.60;45.40;;;;;;6246341;23;19926;-80
2022/07/05 09:52:33;;;;;;;;;;;30.60;45.10;;;;;;6224119;23;19955;-80
2022/07/05 09:55:00;;;;;;;;;;;30.60;44.60;;;;;;6220026;23;19923;-79
2022/07/05 09:57:27;;;;;;;;;;;30.70;45.00;;;;;;6219554;23;19926;-79
2022/07/05 10:00:01;;;;;;;;;;;30.80;46.00;;;;;;6219903;23;19919;-79
2022/07/05 10:02:41;;;;;;;;;;;30.90;44.80;;;;;;6219328;23;19924;-79
2022/07/05 10:05:08;;;;;;;;;;;31.00;45.40;;;;;;6220068;23;19920;-81
2022/07/05 10:07:36;;;;;;;;;;;31.20;45.30;;;;;;6219870;23;20402;-79
2022/07/05 10:10:03;;;;;;;;;;;31.40;44.40;;;;;;6220029;23;19919;-79
2022/07/05 10:12:30;;;;;;;;;;;31.50;44.00;;;;;;6219353;23;19927;-79
2022/07/05 10:14:57;;;;;;;;;;;31.70;44.20;;;;;;6219408;23;19930;-80
2022/07/05 10:17:24;;;;;;;;;;;31.80;43.30;;;;;;6219329;23;20349;-80
2022/07/05 10:19:52;;;;;;;;;;;31.90;44.40;;;;;;6219800;23;19920;-80
2022/07/05 10:22:19;;;;;;;;;;;32.00;43.60;;;;;;6219615;23;19924;-80
2022/07/05 10:24:47;;;;;;;;;;;32.10;43.80;;;;;;6219640;23;19995;-79
2022/07/05 10:27:16;;;;;;;;;;;32.30;44.30;;;;;;6220449;23;20252;-80
2022/07/05 10:29:43;;;;;;;;;;;32.50;44.20;;;;;;6219699;23;19920;-80
2022/07/05 10:32:11;;;;;;;;;;;32.60;43.80;;;;;;6219648;23;19923;-80
2022/07/05 10:34:38;;;;;;;;;;;32.70;42.90;;;;;;6219319;23;20336;-80
2022/07/05 10:37:28;;;;;;;;;;;32.80;43.80;;;;;;6223496;23;19994;-80
2022/07/05 10:39:57;;;;;;;;;;;32.70;42.90;;;;;;6246009;23;19920;-80
2022/07/05 10:42:25;;;;;;;;;;;32.80;42.40;;;;;;6219522;23;19920;-80
2022/07/05 10:44:52;;;;;;;;;;;32.60;41.50;;;;;;6219565;23;20316;-80
2022/07/05 10:47:19;;;;;;;;;;;32.60;42.00;;;;;;6219250;23;19927;-80
2022/07/05 10:49:59;;;;;;;;;;;32.70;42.80;;;;;;6219621;23;19924;-80
2022/07/05 10:52:26;;;;;;;;;;;32.70;41.70;;;;;;6219608;23;19924;-80
2022/07/05 10:55:11;;;;;;;;;;;32.70;40.40;;;;;;6219625;23;19966;-80
2022/07/05 10:57:38;;;;;;;;;;;32.70;41.90;;;;;;6219122;23;19924;-80
2022/07/05 11:00:06;;;;;;;;;;;32.80;41.60;;;;;;6245895;23;19927;-80
2022/07/05 11:02:33;;;;;;;;;;;32.90;42.40;;;;;;6219691;23;19950;-80
2022/07/05 11:05:00;;;;;;;;;;;33.10;42.20;;;;;;6220045;23;20303;-81
2022/07/05 11:07:45;;;;;;;;;;;33.10;40.80;;;;;;6219454;23;19923;-81
2022/07/05 11:10:12;;;;;;;;;;;32.90;40.90;;;;;;6219396;23;19920;-80
2022/07/05 11:12:39;;;;;;;;;;;32.90;39.50;;;;;;6219931;23;19924;-81
2022/07/05 11:15:10;;;;;;;;;;;32.90;39.10;;;;;;6247320;23;19930;-80
2022/07/05 11:17:37;;;;;;;;;;;33.00;39.00;;;;;;6248087;23;19923;-81
2022/07/05 11:20:31;;;;;;;;;;;33.20;40.00;;;;;;6225518;23;19923;-80
2022/07/05 11:23:11;;;;;;;;;;;33.40;39.70;;;;;;6221587;23;19919;-80
2022/07/05 11:25:48;;;;;;;;;;;33.50;39.10;;;;;;6221402;23;20303;-80
2022/07/05 11:28:17;;;;;;;;;;;33.50;38.40;;;;;;6221265;23;19969;-80
2022/07/05 11:30:49;;;;;;;;;;;33.60;38.80;;;;;;6221418;23;19998;-80
2022/07/05 11:33:25;;;;;;;;;;;33.70;37.40;;;;;;6221533;23;19924;-81
2022/07/05 11:35:52;;;;;;;;;;;33.80;36.80;;;;;;6221185;23;19924;-81
2022/07/05 11:38:19;;;;;;;;;;;33.90;36.50;;;;;;6221244;23;19924;-80
2022/07/05 11:40:55;;;;;;;;;;;34.10;35.50;;;;;;6222737;23;20311;-81
2022/07/05 11:43:29;;;;;;;;;;;34.10;36.20;;;;;;6222059;23;19974;-80
2022/07/05 11:45:59;;;;;;;;;;;34.10;36.80;;;;;;6221053;23;19926;-81
2022/07/05 11:48:27;;;;;;;;;;;34.20;35.90;;;;;;6221528;23;19970;-80
2022/07/05 11:50:54;;;;;;;;;;;34.30;35.90;;;;;;6221043;23;19927;-80
2022/07/05 11:53:25;;;;;;;;;;;34.40;36.40;;;;;;6221489;23;20332;-80
2022/07/05 11:56:12;;;;;;;;;;;34.60;35.10;;;;;;6225249;23;20032;-81
2022/07/05 11:58:39;;;;;;;;;;;34.70;34.10;;;;;;6221094;23;19974;-80
2022/07/05 12:01:06;;;;;;;;;;;34.80;32.50;;;;;;6221300;23;19931;-81
2022/07/05 12:03:32;;;;;;;;;;;34.80;31.60;;;;;;6221135;23;19924;-80
2022/07/05 12:06:09;;;;;;;;;;;34.90;32.00;;;;;;6221175;23;19994;-80
2022/07/05 12:08:35;;;;;;;;;;;35.00;31.20;;;;;;6220411;23;19954;-80
2022/07/05 12:13:49;;;;;;;;;;;34.90;32.70;;;;;;6247408;23;19920;-80
2022/07/05 12:16:17;;;;;;;;;;;35.00;33.20;;;;;;6247202;23;20007;-80
2022/07/05 12:18:50;;;;;;;;;;;35.10;31.30;;;;;;6221339;23;19954;-80
2022/07/05 12:21:20;;;;;;;;;;;35.20;31.70;;;;;;6220958;23;20402;-80
2022/07/05 12:23:47;;;;;;;;;;;35.20;32.40;;;;;;6220823;23;20225;-81
2022/07/05 12:26:15;;;;;;;;;;;35.30;32.80;;;;;;6246167;23;20237;-81
2022/07/05 12:28:42;;;;;;;;;;;35.20;32.00;;;;;;6220838;23;20328;-81
2022/07/05 12:31:15;;;;;;;;;;;35.10;33.30;;;;;;6219690;23;19927;-81
2022/07/05 12:33:42;;;;;;;;;;;34.90;32.50;;;;;;6220591;23;19998;-81
2022/07/05 12:36:13;;;;;;;;;;;34.90;33.20;;;;;;6246630;23;19970;-81
2022/07/05 12:38:40;;;;;;;;;;;34.90;34.50;;;;;;6220287;23;19969;-81
2022/07/05 12:41:08;;;;;;;;;;;35.10;34.30;;;;;;6220087;23;19924;-81
2022/07/05 12:43:50;;;;;;;;;;;35.00;33.40;;;;;;6221057;23;19927;-81
2022/07/05 12:46:17;;;;;;;;;;;35.10;33.60;;;;;;6221048;23;19920;-81
2022/07/05 12:48:51;;;;;;;;;;;35.10;33.20;;;;;;6220997;23;19920;-80
2022/07/05 12:51:31;;;;;;;;;;;35.10;34.40;;;;;;6220029;23;19923;-81
2022/07/05 12:59:58;;;;;;;;;;;35.30;34.10;;;;;;6247431;23;19919;-81
2022/07/05 13:02:35;;;;;;;;;;;35.30;33.60;;;;;;6220874;23;19920;-81
2022/07/05 13:05:02;;;;;;;;;;;35.40;34.00;;;;;;6220735;23;19924;-80
2022/07/05 13:07:29;;;;;;;;;;;35.50;32.40;;;;;;6220814;23;19985;-81
2022/07/05 13:10:19;;;;;;;;;;;35.70;32.00;;;;;;6221893;23;19930;-81
2022/07/05 13:12:46;;;;;;;;;;;36.00;30.80;;;;;;6219884;23;19927;-81
2022/07/05 13:15:13;;;;;;;;;;;36.20;31.70;;;;;;6219937;23;19926;-82
2022/07/05 13:17:40;;;;;;;;;;;36.40;30.40;;;;;;6219648;23;19948;-82
2022/07/05 13:20:08;;;;;;;;;;;36.40;31.90;;;;;;6219272;23;19987;-82
2022/07/05 13:22:35;;;;;;;;;;;36.40;30.50;;;;;;6246241;23;19923;-81
2022/07/05 13:25:03;;;;;;;;;;;36.30;31.00;;;;;;6220247;23;20029;-81
2022/07/05 13:27:30;;;;;;;;;;;36.50;31.50;;;;;;6220093;23;19930;-81
2022/07/05 13:29:57;;;;;;;;;;;36.60;31.60;;;;;;6219263;23;19923;-82
2022/07/05 13:32:24;;;;;;;;;;;36.80;31.90;;;;;;6219653;23;19920;-82
2022/07/05 13:34:51;;;;;;;;;;;36.70;30.90;;;;;;6220012;23;19924;-82
2022/07/05 13:37:18;;;;;;;;;;;36.90;32.40;;;;;;6219187;23;19924;-81
2022/07/05 13:39:44;;;;;;;;;;;37.10;31.90;;;;;;6219882;23;19969;-81
2022/07/05 13:42:11;;;;;;;;;;;37.10;29.30;;;;;;6246364;23;19920;-82
2022/07/05 13:44:38;;;;;;;;;;;37.00;30.50;;;;;;6219926;23;19950;-81
2022/07/05 13:47:06;;;;;;;;;;;36.80;30.10;;;;;;6220083;23;19969;-81
2022/07/05 13:49:33;;;;;;;;;;;36.90;30.10;;;;;;6219454;23;19919;-81
2022/07/05 13:52:01;;;;;;;;;;;36.90;29.20;;;;;;6219650;23;19928;-81
2022/07/05 13:54:29;;;;;;;;;;;36.70;29.20;;;;;;6219788;23;19926;-82
2022/07/05 13:56:55;;;;;;;;;;;36.70;30.70;;;;;;6219193;23;19920;-81
2022/07/05 13:59:22;;;;;;;;;;;36.60;29.70;;;;;;6219392;23;19931;-80
2022/07/05 14:01:49;;;;;;;;;;;36.70;30.20;;;;;;6219771;23;19919;-81
2022/07/05 14:04:16;;;;;;;;;;;36.80;30.50;;;;;;6219334;23;19919;-81
2022/07/05 14:06:43;;;;;;;;;;;36.90;29.50;;;;;;6219397;23;19923;-81
2022/07/05 14:09:10;;;;;;;;;;;36.70;30.00;;;;;;6219187;23;20324;-80
2022/07/05 14:11:37;;;;;;;;;;;36.50;29.80;;;;;;6219615;23;19977;-81
2022/07/05 14:14:03;;;;;;;;;;;36.40;30.00;;;;;;6218876;23;19920;-82
2022/07/05 14:16:30;;;;;;;;;;;36.40;31.10;;;;;;6219110;23;19954;-82
2022/07/05 14:18:57;;;;;;;;;;;36.50;30.40;;;;;;6218819;23;19930;-82
2022/07/05 14:21:24;;;;;;;;;;;36.80;31.00;;;;;;6218708;23;19958;-81
2022/07/05 14:24:04;;;;;;;;;;;37.10;30.50;;;;;;6222134;23;19947;-81
2022/07/05 14:26:32;;;;;;;;;;;37.00;28.40;;;;;;6219974;23;19969;-81
2022/07/05 14:29:00;;;;;;;;;;;36.80;29.20;;;;;;6219799;23;19919;-81
2022/07/05 14:31:30;;;;;;;;;;;36.80;31.70;;;;;;6220074;23;19942;-81
2022/07/05 14:33:59;;;;;;;;;;;36.90;30.30;;;;;;6219401;23;19920;-81
2022/07/05 14:36:26;;;;;;;;;;;36.80;28.30;;;;;;6218926;23;19924;-81
2022/07/05 14:38:52;;;;;;;;;;;36.60;28.90;;;;;;6219199;23;19969;-81
2022/07/05 14:41:19;;;;;;;;;;;36.70;29.10;;;;;;6218507;23;19934;-81